createdAt,value
2022-11-16T00:00:08.215Z,1007.52
2022-11-16T00:00:39.798Z,1007.52
2022-11-16T00:01:11.686Z,1007.42
2022-11-16T00:01:44.022Z,1007.42
2022-11-16T00:02:15.975Z,1007.42
2022-11-16T00:02:38.677Z,1007.42
2022-11-16T00:03:01.190Z,1007.42
2022-11-16T00:03:35.812Z,1007.42
2022-11-16T00:04:07.921Z,1007.52
2022-11-16T00:04:39.703Z,1007.52
2022-11-16T00:05:12.130Z,1007.42
2022-11-16T00:05:44.097Z,1007.42
2022-11-16T00:06:15.977Z,1007.42
2022-11-16T00:06:38.835Z,1007.62
2022-11-16T00:07:01.514Z,1007.62
2022-11-16T00:07:36.193Z,1007.62
2022-11-16T00:08:07.690Z,1007.42
2022-11-16T00:08:39.859Z,1007.42
2022-11-16T00:09:11.780Z,1007.52
2022-11-16T00:09:43.796Z,1007.52
2022-11-16T00:10:15.733Z,1007.52
2022-11-16T00:10:38.523Z,1007.42
2022-11-16T00:11:00.914Z,1007.42
2022-11-16T00:11:35.911Z,1007.42
2022-11-16T00:12:07.838Z,1007.42
2022-11-16T00:12:39.873Z,1007.42
2022-11-16T00:13:11.683Z,1007.42
2022-11-16T00:13:43.800Z,1007.42
2022-11-16T00:14:16.100Z,1007.42
2022-11-16T00:14:39.187Z,1007.31
2022-11-16T00:15:02.080Z,1007.31
2022-11-16T00:15:36.048Z,1007.31
2022-11-16T00:16:09.324Z,1007.31
2022-11-16T00:16:39.858Z,1007.31
2022-11-16T00:17:12.011Z,1007.31
2022-11-16T00:17:43.866Z,1007.31
2022-11-16T00:18:16.119Z,1007.31
2022-11-16T00:18:38.515Z,1007.31
2022-11-16T00:19:00.748Z,1007.31
2022-11-16T00:19:35.812Z,1007.31
2022-11-16T00:20:07.876Z,1007.42
2022-11-16T00:20:39.972Z,1007.42
2022-11-16T00:21:11.894Z,1007.21
2022-11-16T00:21:44.154Z,1007.21
2022-11-16T00:22:16.146Z,1007.21
2022-11-16T00:22:39.083Z,1007.31
2022-11-16T00:23:01.360Z,1007.31
2022-11-16T00:23:35.937Z,1007.31
2022-11-16T00:24:07.897Z,1007.42
2022-11-16T00:24:40.008Z,1007.42
2022-11-16T00:25:11.746Z,1007.21
2022-11-16T00:25:43.859Z,1007.21
2022-11-16T00:26:15.807Z,1007.31
2022-11-16T00:26:39.978Z,1007.31
2022-11-16T00:27:02.226Z,1007.31
2022-11-16T00:27:35.851Z,1007.31
2022-11-16T00:28:07.733Z,1007.31
2022-11-16T00:28:39.846Z,1007.31
2022-11-16T00:29:12.066Z,1007.21
2022-11-16T00:29:43.851Z,1007.21
2022-11-16T00:30:15.939Z,1007.42
2022-11-16T00:30:39.128Z,1007.31
2022-11-16T00:31:01.519Z,1007.31
2022-11-16T00:31:35.869Z,1007.31
2022-11-16T00:32:07.913Z,1007.01
2022-11-16T00:32:39.700Z,1007.01
2022-11-16T00:33:11.838Z,1007.21
2022-11-16T00:33:43.789Z,1007.21
2022-11-16T00:34:15.988Z,1007.31
2022-11-16T00:34:39.510Z,1007.31
2022-11-16T00:35:01.778Z,1007.31
2022-11-16T00:35:35.855Z,1007.31
2022-11-16T00:36:07.877Z,1007.21
2022-11-16T00:36:40.363Z,1007.21
2022-11-16T00:37:11.875Z,1007.21
2022-11-16T00:37:44.417Z,1007.21
2022-11-16T00:38:15.964Z,1007.21
2022-11-16T00:38:38.693Z,1007.21
2022-11-16T00:39:01.429Z,1007.21
2022-11-16T00:39:35.822Z,1007.21
2022-11-16T00:40:07.858Z,1007.21
2022-11-16T00:40:39.755Z,1007.21
2022-11-16T00:41:11.837Z,1007.21
2022-11-16T00:41:43.904Z,1007.21
2022-11-16T00:42:15.890Z,1007.11
2022-11-16T00:42:38.791Z,1007.21
2022-11-16T00:43:01.035Z,1007.21
2022-11-16T00:43:35.870Z,1007.21
2022-11-16T00:44:08.089Z,1007.01
2022-11-16T00:44:39.964Z,1007.01
2022-11-16T00:45:11.928Z,1007.21
2022-11-16T00:45:43.848Z,1007.21
2022-11-16T00:46:15.865Z,1007.11
2022-11-16T00:46:38.942Z,1007.11
2022-11-16T00:47:01.458Z,1007.11
2022-11-16T00:47:35.779Z,1007.11
2022-11-16T00:48:08.115Z,1007.11
2022-11-16T00:48:39.704Z,1007.11
2022-11-16T00:49:12.027Z,1007.21
2022-11-16T00:49:44.045Z,1007.21
2022-11-16T00:50:16.512Z,1007.21
2022-11-16T00:50:38.957Z,1007.21
2022-11-16T00:51:01.236Z,1007.21
2022-11-16T00:51:35.715Z,1007.21
2022-11-16T00:52:07.806Z,1007.21
2022-11-16T00:52:39.941Z,1007.21
2022-11-16T00:53:11.953Z,1007.11
2022-11-16T00:53:43.791Z,1007.11
2022-11-16T00:54:15.913Z,1007.01
2022-11-16T00:54:38.660Z,1007.21
2022-11-16T00:55:01.251Z,1007.21
2022-11-16T00:55:35.954Z,1007.21
2022-11-16T00:56:07.779Z,1007.11
2022-11-16T00:56:39.771Z,1007.11
2022-11-16T00:57:11.769Z,1006.84
2022-11-16T00:57:43.897Z,1006.84
2022-11-16T00:58:15.720Z,1006.94
2022-11-16T00:58:38.603Z,1007.01
2022-11-16T00:59:00.937Z,1007.01
2022-11-16T00:59:36.155Z,1007.01
2022-11-16T01:00:07.989Z,1007.01
2022-11-16T01:00:39.869Z,1007.01
2022-11-16T01:01:13.380Z,1007.11
2022-11-16T01:01:44.201Z,1007.11
2022-11-16T01:02:15.756Z,1006.94
2022-11-16T01:02:39.009Z,1007.01
2022-11-16T01:03:01.482Z,1007.01
2022-11-16T01:03:35.937Z,1007.01
2022-11-16T01:04:07.750Z,1006.94
2022-11-16T01:04:40.006Z,1006.94
2022-11-16T01:05:11.978Z,1007.01
2022-11-16T01:05:43.845Z,1007.01
2022-11-16T01:06:15.827Z,1007.11
2022-11-16T01:06:38.730Z,1007.21
2022-11-16T01:07:01.096Z,1007.21
2022-11-16T01:07:36.180Z,1007.21
2022-11-16T01:08:07.871Z,1006.94
2022-11-16T01:08:39.727Z,1006.94
2022-11-16T01:09:11.678Z,1007.11
2022-11-16T01:09:43.835Z,1007.11
2022-11-16T01:10:16.184Z,1006.94
2022-11-16T01:10:38.817Z,1007.01
2022-11-16T01:11:01.355Z,1007.01
2022-11-16T01:11:35.839Z,1007.01
2022-11-16T01:12:07.791Z,1007.21
2022-11-16T01:12:39.856Z,1007.21
2022-11-16T01:13:11.678Z,1006.94
2022-11-16T01:13:44.112Z,1006.94
2022-11-16T01:14:15.793Z,1006.84
2022-11-16T01:14:38.744Z,1007.01
2022-11-16T01:15:02.162Z,1007.01
2022-11-16T01:15:35.908Z,1007.01
2022-11-16T01:16:09.353Z,1007.01
2022-11-16T01:16:39.748Z,1007.01
2022-11-16T01:17:11.711Z,1007.01
2022-11-16T01:17:43.766Z,1007.01
2022-11-16T01:18:16.015Z,1006.84
2022-11-16T01:18:39.776Z,1007.01
2022-11-16T01:19:02.731Z,1007.01
2022-11-16T01:19:35.702Z,1007.01
2022-11-16T01:20:07.820Z,1007.01
2022-11-16T01:20:39.742Z,1007.01
2022-11-16T01:21:11.925Z,1007.01
2022-11-16T01:21:43.843Z,1007.01
2022-11-16T01:22:15.899Z,1006.84
2022-11-16T01:22:39.260Z,1007.01
2022-11-16T01:23:01.557Z,1007.01
2022-11-16T01:23:35.825Z,1007.01
2022-11-16T01:24:07.897Z,1006.94
2022-11-16T01:24:39.846Z,1006.94
2022-11-16T01:25:12.111Z,1006.84
2022-11-16T01:25:43.840Z,1006.84
2022-11-16T01:26:15.930Z,1006.74
2022-11-16T01:26:38.766Z,1006.64
2022-11-16T01:27:01.118Z,1006.64
2022-11-16T01:27:37.342Z,1006.64
2022-11-16T01:28:07.720Z,1006.64
2022-11-16T01:28:39.806Z,1006.64
2022-11-16T01:29:11.735Z,1006.84
2022-11-16T01:29:43.804Z,1006.84
2022-11-16T01:30:15.863Z,1006.94
2022-11-16T01:30:39.121Z,1006.74
2022-11-16T01:31:01.502Z,1006.74
2022-11-16T01:31:35.881Z,1006.74
2022-11-16T01:32:07.710Z,1006.84
2022-11-16T01:32:39.804Z,1006.84
2022-11-16T01:33:11.755Z,1006.94
2022-11-16T01:33:44.022Z,1006.94
2022-11-16T01:34:15.733Z,1006.74
2022-11-16T01:34:38.749Z,1006.84
2022-11-16T01:35:00.966Z,1006.84
2022-11-16T01:35:35.832Z,1006.84
2022-11-16T01:36:07.897Z,1006.74
2022-11-16T01:36:39.729Z,1006.74
2022-11-16T01:37:11.837Z,1006.84
2022-11-16T01:37:43.679Z,1006.84
2022-11-16T01:38:15.855Z,1006.64
2022-11-16T01:38:38.995Z,1006.53
2022-11-16T01:39:01.116Z,1006.53
2022-11-16T01:39:35.885Z,1006.53
2022-11-16T01:40:13.267Z,1006.74
2022-11-16T01:40:39.706Z,1006.74
2022-11-16T01:41:11.871Z,1006.74
2022-11-16T01:41:44.290Z,1006.74
2022-11-16T01:42:15.979Z,1006.74
2022-11-16T01:42:38.924Z,1006.64
2022-11-16T01:43:01.337Z,1006.64
2022-11-16T01:43:35.742Z,1006.64
2022-11-16T01:44:07.776Z,1006.53
2022-11-16T01:44:39.950Z,1006.53
2022-11-16T01:45:11.894Z,1006.43
2022-11-16T01:45:43.819Z,1006.43
2022-11-16T01:46:15.763Z,1006.74
2022-11-16T01:46:38.384Z,1006.53
2022-11-16T01:47:00.894Z,1006.53
2022-11-16T01:47:35.706Z,1006.53
2022-11-16T01:48:08.199Z,1006.53
2022-11-16T01:48:39.922Z,1006.53
2022-11-16T01:49:11.807Z,1006.64
2022-11-16T01:49:43.981Z,1006.64
2022-11-16T01:50:15.834Z,1006.64
2022-11-16T01:50:38.735Z,1006.43
2022-11-16T01:51:01.025Z,1006.43
2022-11-16T01:51:35.749Z,1006.43
2022-11-16T01:52:07.812Z,1006.53
2022-11-16T01:52:39.683Z,1006.53
2022-11-16T01:53:12.029Z,1006.43
2022-11-16T01:53:43.756Z,1006.43
2022-11-16T01:54:15.967Z,1006.53
2022-11-16T01:54:38.474Z,1006.53
2022-11-16T01:55:00.978Z,1006.53
2022-11-16T01:55:36.036Z,1006.53
2022-11-16T01:56:08.196Z,1006.64
2022-11-16T01:56:39.858Z,1006.64
2022-11-16T01:57:12.076Z,1006.43
2022-11-16T01:57:43.765Z,1006.43
2022-11-16T01:58:15.821Z,1006.43
2022-11-16T01:58:39.081Z,1006.23
2022-11-16T01:59:01.476Z,1006.23
2022-11-16T01:59:36.044Z,1006.23
2022-11-16T02:00:08.069Z,1006.23
2022-11-16T02:00:39.834Z,1006.23
2022-11-16T02:01:12.330Z,1006.43
2022-11-16T02:01:43.900Z,1006.43
2022-11-16T02:02:19.219Z,1006.33
2022-11-16T02:02:38.229Z,1006.23
2022-11-16T02:03:03.501Z,1006.23
2022-11-16T02:03:35.933Z,1006.23
2022-11-16T02:04:07.718Z,1006.53
2022-11-16T02:04:39.779Z,1006.53
2022-11-16T02:05:11.770Z,1006.23
2022-11-16T02:08:09.693Z,1006.33
2022-11-16T02:08:39.875Z,1006.33
2022-11-16T02:09:12.273Z,1006.13
2022-11-16T02:09:43.802Z,1006.13
2022-11-16T02:10:15.918Z,1006.33
2022-11-16T02:10:38.644Z,1006.43
2022-11-16T02:11:01.001Z,1006.43
2022-11-16T02:11:35.947Z,1006.43
2022-11-16T02:12:07.934Z,1006.23
2022-11-16T02:12:39.727Z,1006.23
2022-11-16T02:13:11.730Z,1006.13
2022-11-16T02:13:43.776Z,1006.13
2022-11-16T02:14:15.817Z,1006.23
2022-11-16T02:14:39.148Z,1006.33
2022-11-16T02:15:02.088Z,1006.33
2022-11-16T02:15:35.712Z,1006.33
2022-11-16T02:16:09.264Z,1006.03
2022-11-16T02:16:39.815Z,1006.03
2022-11-16T02:17:11.670Z,1006.23
2022-11-16T02:17:44.079Z,1006.23
2022-11-16T02:18:15.748Z,1006.53
2022-11-16T02:18:38.694Z,1006.03
2022-11-16T02:19:01.065Z,1006.03
2022-11-16T02:19:35.735Z,1006.03
2022-11-16T02:20:07.772Z,1006.03
2022-11-16T02:20:39.743Z,1006.03
2022-11-16T02:21:11.673Z,1006.03
2022-11-16T02:21:43.709Z,1006.03
2022-11-16T02:22:16.011Z,1005.82
2022-11-16T02:22:39.454Z,1006.23
2022-11-16T02:23:01.734Z,1006.23
2022-11-16T02:23:35.874Z,1006.23
2022-11-16T02:24:07.846Z,1006.23
2022-11-16T02:24:39.698Z,1006.23
2022-11-16T02:25:11.676Z,1006.03
2022-11-16T02:25:43.635Z,1006.03
2022-11-16T02:26:15.911Z,1006.13
2022-11-16T02:26:38.575Z,1006.03
2022-11-16T02:27:00.837Z,1006.03
2022-11-16T02:27:35.953Z,1006.03
2022-11-16T02:28:07.862Z,1006.13
2022-11-16T02:28:39.770Z,1006.13
2022-11-16T02:29:12.028Z,1005.93
2022-11-16T02:29:43.947Z,1005.93
2022-11-16T02:30:15.859Z,1006.13
2022-11-16T02:30:38.851Z,1006.03
2022-11-16T02:31:01.020Z,1006.03
2022-11-16T02:31:35.758Z,1006.03
2022-11-16T02:32:07.661Z,1006.23
2022-11-16T02:32:39.669Z,1006.23
2022-11-16T02:33:11.629Z,1006.03
2022-11-16T02:33:43.880Z,1006.03
2022-11-16T02:34:15.709Z,1005.82
2022-11-16T02:34:38.381Z,1006.23
2022-11-16T02:35:00.936Z,1006.23
2022-11-16T02:35:35.797Z,1006.23
2022-11-16T02:36:07.719Z,1006.03
2022-11-16T02:36:40.154Z,1006.03
2022-11-16T02:37:12.029Z,1005.93
2022-11-16T02:37:43.891Z,1005.93
2022-11-16T02:38:15.774Z,1006.03
2022-11-16T02:38:40.279Z,1005.93
2022-11-16T02:39:02.699Z,1005.93
2022-11-16T02:39:35.775Z,1005.93
2022-11-16T02:40:23.919Z,1006.03
2022-11-16T02:40:46.572Z,1006.03
2022-11-16T02:41:09.328Z,1006.03
2022-11-16T02:41:43.896Z,1006.03
2022-11-16T02:42:16.701Z,1005.82
2022-11-16T02:42:39.282Z,1005.93
2022-11-16T02:43:02.003Z,1005.93
2022-11-16T02:43:35.806Z,1005.93
2022-11-16T02:44:07.849Z,1005.93
2022-11-16T02:44:39.808Z,1005.93
2022-11-16T02:45:11.782Z,1005.82
2022-11-16T02:45:44.803Z,1005.82
2022-11-16T02:46:15.947Z,1006.03
2022-11-16T02:46:38.590Z,1006.03
2022-11-16T02:47:02.512Z,1006.03
2022-11-16T02:47:35.749Z,1006.03
2022-11-16T02:48:08.343Z,1005.93
2022-11-16T02:48:39.826Z,1005.93
2022-11-16T02:49:11.921Z,1005.82
2022-11-16T02:49:43.797Z,1005.82
2022-11-16T02:50:16.210Z,1006.03
2022-11-16T02:50:38.865Z,1006.03
2022-11-16T02:51:02.167Z,1006.03
2022-11-16T02:51:35.825Z,1006.03
2022-11-16T02:52:07.768Z,1005.93
2022-11-16T02:52:39.790Z,1005.93
2022-11-16T02:53:12.303Z,1006.03
2022-11-16T02:53:44.449Z,1006.03
2022-11-16T02:54:15.856Z,1005.93
2022-11-16T02:54:38.486Z,1005.82
2022-11-16T02:55:01.796Z,1005.82
2022-11-16T02:55:36.412Z,1005.82
2022-11-16T02:56:08.606Z,1006.03
2022-11-16T02:56:39.999Z,1006.03
2022-11-16T02:57:11.730Z,1005.62
2022-11-16T02:57:43.709Z,1005.62
2022-11-16T02:58:16.438Z,1005.93
2022-11-16T02:58:39.108Z,1005.93
2022-11-16T02:59:01.751Z,1005.93
2022-11-16T02:59:35.892Z,1005.93
2022-11-16T03:00:08.630Z,1005.82
2022-11-16T03:00:39.935Z,1005.82
2022-11-16T03:01:12.377Z,1005.93
2022-11-16T03:01:43.881Z,1005.93
2022-11-16T03:02:15.848Z,1005.82
2022-11-16T03:02:38.746Z,1005.72
2022-11-16T03:03:01.821Z,1005.72
2022-11-16T03:03:36.101Z,1005.72
2022-11-16T03:04:07.750Z,1005.82
2022-11-16T03:04:40.005Z,1005.82
2022-11-16T03:05:11.934Z,1005.82
2022-11-16T03:05:45.783Z,1005.93
2022-11-16T03:06:18.366Z,1005.93
2022-11-16T03:06:38.379Z,1005.72
2022-11-16T03:07:03.473Z,1005.72
2022-11-16T03:07:36.719Z,1005.72
2022-11-16T03:08:08.000Z,1005.82
2022-11-16T03:08:40.528Z,1005.82
2022-11-16T03:09:12.032Z,1005.62
2022-11-16T03:09:44.789Z,1005.62
2022-11-16T03:10:15.663Z,1005.72
2022-11-16T03:10:38.275Z,1005.82
2022-11-16T03:11:04.836Z,1005.82
2022-11-16T03:11:40.285Z,1005.82
2022-11-16T03:12:07.832Z,1005.72
2022-11-16T03:12:39.669Z,1005.72
2022-11-16T03:13:11.869Z,1005.72
2022-11-16T03:13:46.629Z,1005.72
2022-11-16T03:14:16.466Z,1005.82
2022-11-16T03:14:39.493Z,1005.62
2022-11-16T03:15:02.230Z,1005.62
2022-11-16T03:15:36.155Z,1005.62
2022-11-16T03:16:10.253Z,1005.82
2022-11-16T03:16:40.551Z,1005.82
2022-11-16T03:17:12.051Z,1005.62
2022-11-16T03:17:43.902Z,1005.62
2022-11-16T03:18:15.763Z,1005.72
2022-11-16T03:18:38.564Z,1005.72
2022-11-16T03:19:01.197Z,1005.72
2022-11-16T03:19:35.777Z,1005.72
2022-11-16T03:20:08.327Z,1005.82
2022-11-16T03:20:39.924Z,1005.82
2022-11-16T03:21:12.505Z,1005.93
2022-11-16T03:21:43.635Z,1005.93
2022-11-16T03:22:15.877Z,1005.72
2022-11-16T03:22:38.481Z,1005.93
2022-11-16T03:23:00.748Z,1005.93
2022-11-16T03:23:35.845Z,1005.93
2022-11-16T03:24:09.808Z,1005.62
2022-11-16T03:24:39.981Z,1005.62
2022-11-16T03:25:11.722Z,1005.82
2022-11-16T03:25:43.671Z,1005.82
2022-11-16T03:26:16.159Z,1005.72
2022-11-16T03:26:39.109Z,1005.72
2022-11-16T03:27:01.883Z,1005.72
2022-11-16T03:27:36.888Z,1005.72
2022-11-16T03:28:07.858Z,1005.93
2022-11-16T03:28:39.727Z,1005.93
2022-11-16T03:29:12.121Z,1005.62
2022-11-16T03:29:43.798Z,1005.62
2022-11-16T03:30:17.346Z,1005.82
2022-11-16T03:30:38.912Z,1005.72
2022-11-16T03:31:04.175Z,1005.72
2022-11-16T03:31:36.049Z,1005.72
2022-11-16T03:32:08.027Z,1005.72
2022-11-16T03:32:40.129Z,1005.72
2022-11-16T03:33:12.019Z,1005.72
2022-11-16T03:33:46.781Z,1005.62
2022-11-16T03:34:31.832Z,1005.62
2022-11-16T03:35:08.267Z,1005.62
2022-11-16T03:35:36.584Z,1005.62
2022-11-16T03:36:08.590Z,1005.72
2022-11-16T03:36:39.765Z,1005.72
2022-11-16T03:37:13.440Z,1005.62
2022-11-16T03:37:43.698Z,1005.62
2022-11-16T03:38:16.522Z,1005.42
2022-11-16T03:38:39.239Z,1005.72
2022-11-16T03:39:02.034Z,1005.72
2022-11-16T03:39:36.062Z,1005.72
2022-11-16T03:40:07.913Z,1005.82
2022-11-16T03:40:39.981Z,1005.82
2022-11-16T03:41:12.169Z,1005.62
2022-11-16T03:41:46.465Z,1005.62
2022-11-16T03:42:16.295Z,1005.62
2022-11-16T03:42:38.496Z,1005.52
2022-11-16T03:43:01.381Z,1005.52
2022-11-16T03:43:35.807Z,1005.52
2022-11-16T03:44:08.375Z,1005.82
2022-11-16T03:44:39.826Z,1005.82
2022-11-16T03:45:17.032Z,1005.72
2022-11-16T03:45:44.049Z,1005.72
2022-11-16T03:46:16.453Z,1005.72
2022-11-16T03:46:39.154Z,1005.62
2022-11-16T03:47:01.610Z,1005.62
2022-11-16T03:47:36.037Z,1005.62
2022-11-16T03:48:08.334Z,1005.82
2022-11-16T03:48:39.763Z,1005.82
2022-11-16T03:49:12.220Z,1005.82
2022-11-16T03:49:44.020Z,1005.82
2022-11-16T03:50:16.926Z,1005.52
2022-11-16T03:50:39.620Z,1005.62
2022-11-16T03:51:02.706Z,1005.62
2022-11-16T03:51:35.733Z,1005.62
2022-11-16T03:52:07.866Z,1005.72
2022-11-16T03:52:39.717Z,1005.72
2022-11-16T03:53:12.859Z,1005.72
2022-11-16T03:53:44.243Z,1005.72
2022-11-16T03:54:15.855Z,1005.52
2022-11-16T03:54:38.710Z,1005.52
2022-11-16T03:55:01.520Z,1005.52
2022-11-16T03:55:36.640Z,1005.52
2022-11-16T03:56:07.934Z,1005.42
2022-11-16T03:56:40.666Z,1005.42
2022-11-16T03:57:11.540Z,1005.72
2022-11-16T03:57:45.193Z,1005.72
2022-11-16T03:58:15.882Z,1005.52
2022-11-16T03:58:38.656Z,1005.62
2022-11-16T03:59:00.905Z,1005.62
2022-11-16T03:59:35.897Z,1005.62
2022-11-16T04:00:08.576Z,1005.52
2022-11-16T04:00:39.655Z,1005.52
2022-11-16T04:01:11.949Z,1005.52
2022-11-16T04:01:45.068Z,1005.52
2022-11-16T04:02:15.938Z,1005.62
2022-11-16T04:02:38.911Z,1005.52
2022-11-16T04:03:03.431Z,1005.52
2022-11-16T04:03:37.047Z,1005.52
2022-11-16T04:04:08.075Z,1005.52
2022-11-16T04:04:40.672Z,1005.52
2022-11-16T04:05:11.741Z,1005.52
2022-11-16T04:05:43.731Z,1005.52
2022-11-16T04:06:15.714Z,1005.82
2022-11-16T04:06:39.981Z,1005.42
2022-11-16T04:07:01.348Z,1005.42
2022-11-16T04:07:35.756Z,1005.42
2022-11-16T04:08:08.188Z,1005.52
2022-11-16T04:08:39.720Z,1005.52
2022-11-16T04:09:19.424Z,1005.42
2022-11-16T04:09:39.474Z,1005.42
2022-11-16T04:10:11.739Z,1005.72
2022-11-16T04:10:43.491Z,1005.52
2022-11-16T04:11:19.741Z,1005.52
2022-11-16T04:11:42.673Z,1005.72
2022-11-16T04:12:05.078Z,1005.72
2022-11-16T04:12:39.745Z,1005.72
2022-11-16T04:13:11.629Z,1005.72
2022-11-16T04:13:43.726Z,1005.72
2022-11-16T04:14:15.580Z,1005.42
2022-11-16T04:14:38.582Z,1005.72
2022-11-16T04:15:02.581Z,1005.72
2022-11-16T04:15:35.702Z,1005.72
2022-11-16T04:16:10.098Z,1005.62
2022-11-16T04:16:39.753Z,1005.62
2022-11-16T04:17:11.706Z,1005.72
2022-11-16T04:17:43.564Z,1005.72
2022-11-16T04:18:15.684Z,1005.82
2022-11-16T04:18:38.442Z,1005.52
2022-11-16T04:19:00.881Z,1005.52
2022-11-16T04:19:35.810Z,1005.52
2022-11-16T04:20:09.149Z,1005.62
2022-11-16T04:20:39.599Z,1005.62
2022-11-16T04:21:11.712Z,1005.72
2022-11-16T04:21:43.982Z,1005.72
2022-11-16T04:22:15.870Z,1005.62
2022-11-16T04:22:38.913Z,1005.62
2022-11-16T04:23:00.698Z,1005.62
2022-11-16T04:23:35.715Z,1005.62
2022-11-16T04:24:07.824Z,1005.62
2022-11-16T04:24:39.774Z,1005.62
2022-11-16T04:25:11.667Z,1005.62
2022-11-16T04:25:43.669Z,1005.62
2022-11-16T04:26:15.599Z,1005.72
2022-11-16T04:26:40.119Z,1005.72
2022-11-16T04:27:00.987Z,1005.72
2022-11-16T04:27:35.628Z,1005.72
2022-11-16T04:28:07.640Z,1005.72
2022-11-16T04:28:39.751Z,1005.72
2022-11-16T04:29:11.599Z,1005.62
2022-11-16T04:29:43.690Z,1005.62
2022-11-16T04:30:15.772Z,1005.82
2022-11-16T04:30:38.551Z,1005.72
2022-11-16T04:31:00.667Z,1005.72
2022-11-16T04:31:35.716Z,1005.72
2022-11-16T04:32:09.240Z,1005.72
2022-11-16T04:32:39.677Z,1005.72
2022-11-16T04:33:11.587Z,1005.62
2022-11-16T04:33:43.945Z,1005.62
2022-11-16T04:34:16.238Z,1005.93
2022-11-16T04:34:38.475Z,1005.82
2022-11-16T04:35:00.722Z,1005.82
2022-11-16T04:35:35.664Z,1005.82
2022-11-16T04:36:07.689Z,1005.82
2022-11-16T04:36:40.052Z,1005.82
2022-11-16T04:37:11.812Z,1005.93
2022-11-16T04:37:44.080Z,1005.93
2022-11-16T04:38:15.590Z,1005.72
2022-11-16T04:38:38.845Z,1005.62
2022-11-16T04:39:01.170Z,1005.62
2022-11-16T04:39:37.128Z,1005.62
2022-11-16T04:40:07.871Z,1005.62
2022-11-16T04:40:39.772Z,1005.62
2022-11-16T04:41:11.530Z,1005.82
2022-11-16T04:41:43.708Z,1005.82
2022-11-16T04:42:15.764Z,1005.72
2022-11-16T04:42:38.378Z,1005.82
2022-11-16T04:43:00.767Z,1005.82
2022-11-16T04:43:35.739Z,1005.82
2022-11-16T04:44:07.652Z,1005.72
2022-11-16T04:44:39.684Z,1005.72
2022-11-16T04:45:12.024Z,1005.93
2022-11-16T04:45:43.672Z,1005.93
2022-11-16T04:46:17.245Z,1005.62
2022-11-16T04:46:38.712Z,1005.72
2022-11-16T04:47:01.007Z,1005.72
2022-11-16T04:47:35.735Z,1005.72
2022-11-16T04:48:09.208Z,1005.72
2022-11-16T04:48:39.663Z,1005.72
2022-11-16T04:49:11.751Z,1005.72
2022-11-16T04:49:43.710Z,1005.72
2022-11-16T04:50:16.105Z,1005.72
2022-11-16T04:50:39.069Z,1005.62
2022-11-16T04:51:01.350Z,1005.62
2022-11-16T04:51:35.681Z,1005.62
2022-11-16T04:52:07.633Z,1005.72
2022-11-16T04:52:39.588Z,1005.72
2022-11-16T04:53:12.129Z,1005.72
2022-11-16T04:53:43.693Z,1005.72
2022-11-16T04:54:15.737Z,1005.82
2022-11-16T04:54:38.573Z,1005.72
2022-11-16T04:55:01.149Z,1005.72
2022-11-16T04:55:35.641Z,1005.72
2022-11-16T04:56:07.726Z,1005.62
2022-11-16T04:56:39.772Z,1005.62
2022-11-16T04:57:11.713Z,1005.82
2022-11-16T04:57:43.741Z,1005.82
2022-11-16T04:58:15.620Z,1006.03
2022-11-16T04:58:38.945Z,1005.82
2022-11-16T04:59:01.398Z,1005.82
2022-11-16T04:59:35.773Z,1005.82
2022-11-16T05:00:11.402Z,1005.72
2022-11-16T05:00:39.870Z,1005.72
2022-11-16T05:01:11.595Z,1005.93
2022-11-16T05:01:43.753Z,1005.93
2022-11-16T05:02:15.764Z,1005.93
2022-11-16T05:02:40.049Z,1005.93
2022-11-16T05:03:01.595Z,1005.93
2022-11-16T05:03:35.734Z,1005.93
2022-11-16T05:04:07.729Z,1005.82
2022-11-16T05:04:39.520Z,1005.82
2022-11-16T05:05:11.702Z,1005.72
2022-11-16T05:05:43.697Z,1005.72
2022-11-16T05:06:15.668Z,1005.62
2022-11-16T05:06:39.014Z,1005.82
2022-11-16T05:07:01.742Z,1005.82
2022-11-16T05:07:36.191Z,1005.82
2022-11-16T05:08:09.217Z,1005.62
2022-11-16T05:08:40.164Z,1005.62
2022-11-16T05:09:11.701Z,1005.82
2022-11-16T05:09:43.565Z,1005.82
2022-11-16T05:10:15.661Z,1005.62
2022-11-16T05:10:38.381Z,1005.52
2022-11-16T05:11:00.582Z,1005.52
2022-11-16T05:11:36.021Z,1005.52
2022-11-16T05:12:07.638Z,1005.52
2022-11-16T05:12:39.711Z,1005.52
2022-11-16T05:13:11.556Z,1005.72
2022-11-16T05:13:47.901Z,1005.72
2022-11-16T05:14:15.586Z,1005.62
2022-11-16T05:14:39.183Z,1005.72
2022-11-16T05:15:02.094Z,1005.72
2022-11-16T05:15:35.703Z,1005.72
2022-11-16T05:16:07.579Z,1005.72
2022-11-16T05:16:41.243Z,1005.72
2022-11-16T05:17:11.727Z,1005.52
2022-11-16T05:17:43.780Z,1005.52
2022-11-16T05:18:15.529Z,1005.72
2022-11-16T05:18:38.250Z,1005.52
2022-11-16T05:19:00.606Z,1005.52
2022-11-16T05:19:35.667Z,1005.52
2022-11-16T05:20:07.783Z,1005.72
2022-11-16T05:20:39.610Z,1005.72
2022-11-16T05:21:12.135Z,1005.62
2022-11-16T05:21:43.586Z,1005.62
2022-11-16T05:22:15.765Z,1005.52
2022-11-16T05:22:39.895Z,1005.72
2022-11-16T05:23:02.019Z,1005.72
2022-11-16T05:23:35.639Z,1005.72
2022-11-16T05:24:07.744Z,1005.62
2022-11-16T05:24:39.536Z,1005.62
2022-11-16T05:25:11.633Z,1005.42
2022-11-16T05:25:43.604Z,1005.42
2022-11-16T05:26:15.710Z,1005.42
2022-11-16T05:26:41.980Z,1005.42
2022-11-16T05:27:01.875Z,1005.42
2022-11-16T05:27:35.815Z,1005.42
2022-11-16T05:28:07.565Z,1005.62
2022-11-16T05:28:39.563Z,1005.62
2022-11-16T05:29:11.559Z,1005.72
2022-11-16T05:29:43.692Z,1005.72
2022-11-16T05:30:15.714Z,1005.62
2022-11-16T05:30:38.454Z,1005.82
2022-11-16T05:31:00.727Z,1005.82
2022-11-16T05:31:40.322Z,1005.82
2022-11-16T05:32:07.699Z,1005.82
2022-11-16T05:32:40.019Z,1005.82
2022-11-16T05:33:11.607Z,1005.93
2022-11-16T05:33:43.653Z,1005.93
2022-11-16T05:34:15.552Z,1005.52
2022-11-16T05:34:41.099Z,1005.82
2022-11-16T05:35:01.008Z,1005.82
2022-11-16T05:35:37.039Z,1005.82
2022-11-16T05:36:07.525Z,1005.72
2022-11-16T05:36:39.499Z,1005.72
2022-11-16T05:37:11.677Z,1005.72
2022-11-16T05:37:43.498Z,1005.72
2022-11-16T05:38:16.042Z,1005.82
2022-11-16T05:38:39.614Z,1005.62
2022-11-16T05:39:01.973Z,1005.62
2022-11-16T05:39:35.524Z,1005.62
2022-11-16T05:40:07.855Z,1005.72
2022-11-16T05:40:39.489Z,1005.72
2022-11-16T05:41:11.866Z,1005.82
2022-11-16T05:41:43.505Z,1005.82
2022-11-16T05:42:15.670Z,1005.93
2022-11-16T05:42:38.316Z,1005.72
2022-11-16T05:43:00.738Z,1005.72
2022-11-16T05:43:35.638Z,1005.72
2022-11-16T05:44:09.010Z,1005.82
2022-11-16T05:44:39.607Z,1005.82
2022-11-16T05:45:11.792Z,1006.03
2022-11-16T05:45:44.127Z,1006.03
2022-11-16T05:46:15.583Z,1005.82
2022-11-16T05:46:38.930Z,1005.62
2022-11-16T05:47:01.402Z,1005.62
2022-11-16T05:47:35.613Z,1005.62
2022-11-16T05:48:09.084Z,1005.93
2022-11-16T05:48:39.561Z,1005.93
2022-11-16T05:49:11.754Z,1005.72
2022-11-16T05:49:43.685Z,1005.72
2022-11-16T05:50:15.467Z,1005.82
2022-11-16T05:50:42.718Z,1005.82
2022-11-16T05:51:19.514Z,1005.82
2022-11-16T05:51:42.700Z,1005.72
2022-11-16T05:52:04.633Z,1005.72
2022-11-16T05:52:39.550Z,1005.72
2022-11-16T05:53:11.707Z,1005.82
2022-11-16T05:53:43.485Z,1005.82
2022-11-16T05:54:15.837Z,1006.03
2022-11-16T05:54:39.331Z,1005.72
2022-11-16T05:55:01.692Z,1005.72
2022-11-16T05:55:35.711Z,1005.72
2022-11-16T05:56:07.684Z,1005.93
2022-11-16T05:56:39.802Z,1005.93
2022-11-16T05:57:11.615Z,1006.03
2022-11-16T05:57:43.634Z,1006.03
2022-11-16T05:58:15.616Z,1005.82
2022-11-16T05:58:38.209Z,1005.82
2022-11-16T05:59:00.571Z,1005.82
2022-11-16T05:59:35.746Z,1005.82
2022-11-16T06:00:08.153Z,1005.82
2022-11-16T06:00:39.636Z,1005.82
2022-11-16T06:01:11.921Z,1005.93
2022-11-16T06:01:43.672Z,1005.93
2022-11-16T06:02:15.439Z,1005.93
2022-11-16T06:02:38.362Z,1005.82
2022-11-16T06:03:00.713Z,1005.82
2022-11-16T06:03:35.762Z,1005.82
2022-11-16T06:04:09.163Z,1005.93
2022-11-16T06:04:39.716Z,1005.93
2022-11-16T06:05:11.579Z,1005.82
2022-11-16T06:05:43.626Z,1005.82